PILOTS ONLINE: 264    ATC ONLINE: 38

CYSY

Sachs Harbour (David Nasogaluak Jr. Saaryuaq) Airport

Location

IATA YSY
City Sachs Harbour
Country  Canada
Latitude 71° 59' 38" N
Longitude 125° 14' 34" W
Elevation 282 ft
Type Medium Airport

Map

Weather

METAR
2014/10/01 23:00
CYSY 012300Z 11016KT 10SM -SN BKN020 M04/M05 A3001 RMK SC7 -3.5/-6.5/TR/1.0/ MED PACK LAST OBS/NEXT 021300Z SLP171
TAF
2014/10/01 19:00
TAF CYSY 011838Z 0119/0123 11015KT P6SM BKN020 
      TEMPO 0119/0123 2SM -SN BKN006 
      RMK NXT FCST WILL BE ISSUED AT 021445Z

Runways

08T/26T 4000 ft / 100 ft

Outbound flights

Callsign Flying to Pilot ATD/STD ETA Aircraft

Inbound flights

Callsign Flying from Pilot ATD ETA Aircraft